createdAt,value
2023-04-13T00:00:21.756Z,17.93
2023-04-13T00:02:54.464Z,16.70
2023-04-13T00:05:22.071Z,14.73
2023-04-13T00:07:49.509Z,21.37
2023-04-13T00:10:18.993Z,15.53
2023-04-13T00:12:48.495Z,15.90
2023-04-13T00:15:16.100Z,16.20
2023-04-13T00:17:43.505Z,16.10
2023-04-13T00:20:13.618Z,12.83
2023-04-13T00:22:42.216Z,18.57
2023-04-13T00:25:10.621Z,16.67
2023-04-13T00:27:40.748Z,15.80
2023-04-13T00:30:09.906Z,26.70
2023-04-13T00:32:37.513Z,14.50
2023-04-13T00:35:04.658Z,15.20
2023-04-13T00:37:32.686Z,12.00
2023-04-13T00:39:59.560Z,15.00
2023-04-13T00:42:27.488Z,13.10
2023-04-13T00:44:54.546Z,13.50
2023-04-13T00:47:42.214Z,13.27
2023-04-13T00:50:09.349Z,11.20
2023-04-13T00:52:39.331Z,12.90
2023-04-13T00:55:07.337Z,11.70
2023-04-13T00:57:35.039Z,12.10
2023-04-13T01:00:08.452Z,7.43
2023-04-13T01:02:35.539Z,10.40
2023-04-13T01:05:03.450Z,7.83
2023-04-13T01:07:41.927Z,7.53
2023-04-13T01:10:23.627Z,7.87
2023-04-13T01:13:25.110Z,7.93
2023-04-13T01:15:58.237Z,7.33
2023-04-13T01:18:26.476Z,5.43
2023-04-13T01:20:53.523Z,6.40
2023-04-13T01:23:49.169Z,8.63
2023-04-13T01:26:17.242Z,5.13
2023-04-13T01:28:46.840Z,4.50
2023-04-13T01:31:15.604Z,9.33
2023-04-13T01:33:42.289Z,4.37
2023-04-13T01:36:11.580Z,4.30
2023-04-13T01:38:38.274Z,6.30
2023-04-13T01:41:08.703Z,6.10
2023-04-13T01:43:37.815Z,5.60
2023-04-13T01:46:11.354Z,4.80
2023-04-13T01:48:49.456Z,2.83
2023-04-13T01:51:31.437Z,4.03
2023-04-13T01:54:14.770Z,7.43
2023-04-13T01:56:44.406Z,5.10
2023-04-13T01:59:11.354Z,4.77
2023-04-13T02:01:39.329Z,3.70
2023-04-13T02:04:07.832Z,6.90
2023-04-13T02:06:36.919Z,3.47
2023-04-13T02:09:07.397Z,3.47
2023-04-13T02:11:35.345Z,4.47
2023-04-13T02:14:04.885Z,3.57
2023-04-13T02:16:32.246Z,5.27
2023-04-13T02:18:59.331Z,4.47
2023-04-13T02:21:26.476Z,6.73
2023-04-13T02:23:54.030Z,5.87
2023-04-13T02:26:22.730Z,8.70
2023-04-13T02:28:51.127Z,5.20
2023-04-13T02:31:19.702Z,6.33
2023-04-13T02:33:46.765Z,5.50
2023-04-13T02:36:13.482Z,7.63
2023-04-13T02:38:48.436Z,8.27
2023-04-13T02:41:25.696Z,4.70
2023-04-13T02:43:52.514Z,6.90
2023-04-13T02:46:23.687Z,8.73
2023-04-13T02:48:56.561Z,5.97
2023-04-13T02:51:24.819Z,6.13
2023-04-13T02:53:52.631Z,5.77
2023-04-13T02:56:19.443Z,7.30
2023-04-13T02:58:50.002Z,4.40
2023-04-13T03:01:18.774Z,4.70
2023-04-13T03:03:45.911Z,10.37
2023-04-13T03:06:12.618Z,7.00
2023-04-13T03:08:44.677Z,4.13
2023-04-13T03:11:17.494Z,9.97
2023-04-13T03:14:03.730Z,5.53
2023-04-13T03:16:32.054Z,8.17
2023-04-13T03:18:59.412Z,5.20
2023-04-13T03:21:26.350Z,4.97
2023-04-13T03:24:02.278Z,5.07
2023-04-13T03:26:29.102Z,5.40
2023-04-13T03:29:00.291Z,5.67
2023-04-13T03:31:29.701Z,7.33
2023-04-13T03:33:58.525Z,7.63
2023-04-13T03:36:27.491Z,4.97
2023-04-13T03:38:55.285Z,4.87
2023-04-13T03:41:23.746Z,6.37
2023-04-13T03:43:51.057Z,6.43
2023-04-13T03:46:17.850Z,4.37
2023-04-13T03:48:44.767Z,4.67
2023-04-13T03:51:16.480Z,5.43
2023-04-13T03:53:55.249Z,7.53
2023-04-13T03:56:25.194Z,4.50
2023-04-13T03:58:52.646Z,3.90
2023-04-13T04:01:24.053Z,5.13
2023-04-13T04:03:53.546Z,5.27
2023-04-13T04:06:21.057Z,6.87
2023-04-13T04:08:54.409Z,5.40
2023-04-13T04:11:40.470Z,3.67
2023-04-13T04:14:11.714Z,5.23
2023-04-13T04:16:44.203Z,2.87
2023-04-13T04:19:13.581Z,6.20
2023-04-13T04:21:46.806Z,3.10
2023-04-13T04:24:20.694Z,2.70
2023-04-13T04:26:50.615Z,3.00
2023-04-13T04:29:21.892Z,2.40
2023-04-13T04:31:53.262Z,2.90
2023-04-13T04:34:22.782Z,4.67
2023-04-13T04:36:54.065Z,5.20
2023-04-13T04:39:26.789Z,2.60
2023-04-13T04:42:03.696Z,2.87
2023-04-13T04:44:31.524Z,2.20
2023-04-13T04:47:04.177Z,2.77
2023-04-13T04:49:36.496Z,3.87
2023-04-13T04:52:04.260Z,4.70
2023-04-13T04:54:30.946Z,5.57
2023-04-13T04:57:02.003Z,3.67
2023-04-13T04:59:30.115Z,2.83
2023-04-13T05:02:01.191Z,3.23
2023-04-13T05:04:28.009Z,2.20
2023-04-13T05:06:54.723Z,2.40
2023-04-13T05:09:24.501Z,1.80
2023-04-13T05:11:53.182Z,4.30
2023-04-13T05:14:20.923Z,1.97
2023-04-13T05:16:48.159Z,2.33
2023-04-13T05:19:23.128Z,1.87
2023-04-13T05:21:59.494Z,1.53
2023-04-13T05:24:27.157Z,1.90
2023-04-13T05:26:57.792Z,1.70
2023-04-13T05:29:25.428Z,2.53
2023-04-13T05:31:52.289Z,6.50
2023-04-13T05:34:19.650Z,4.27
2023-04-13T05:37:09.904Z,1.30
2023-04-13T05:39:36.561Z,2.50
2023-04-13T05:42:03.302Z,1.83
2023-04-13T05:44:33.414Z,1.63
2023-04-13T05:47:02.160Z,1.90
2023-04-13T05:49:31.805Z,2.20
2023-04-13T05:51:59.297Z,3.70
2023-04-13T05:54:36.319Z,4.30
2023-04-13T05:57:03.063Z,2.40
2023-04-13T05:59:30.925Z,1.20
2023-04-13T06:02:01.068Z,1.37
2023-04-13T06:04:28.463Z,4.10
2023-04-13T06:06:58.218Z,1.20
2023-04-13T06:09:24.896Z,2.63
2023-04-13T06:11:51.550Z,2.40
2023-04-13T06:14:18.345Z,2.47
2023-04-13T06:16:44.979Z,1.83
2023-04-13T06:19:12.829Z,1.60
2023-04-13T06:21:39.684Z,1.80
2023-04-13T06:24:06.710Z,3.70
2023-04-13T06:26:40.708Z,1.87
2023-04-13T06:29:07.384Z,1.47
2023-04-13T06:31:42.380Z,1.60
2023-04-13T06:34:13.786Z,3.20
2023-04-13T06:36:40.921Z,4.60
2023-04-13T06:39:11.809Z,2.20
2023-04-13T06:41:40.952Z,2.70
2023-04-13T06:44:26.430Z,1.20
2023-04-13T06:46:56.704Z,1.43
2023-04-13T06:49:25.382Z,4.10
2023-04-13T06:51:52.284Z,1.47
2023-04-13T06:54:18.972Z,3.03
2023-04-13T06:56:49.910Z,5.87
2023-04-13T06:59:16.600Z,2.70
2023-04-13T07:01:43.302Z,2.40
2023-04-13T07:04:10.427Z,1.53
2023-04-13T07:06:38.312Z,1.73
2023-04-13T07:09:05.080Z,1.73
2023-04-13T07:11:32.782Z,2.27
2023-04-13T07:14:01.005Z,1.63
2023-04-13T07:16:27.820Z,2.30
2023-04-13T07:18:54.663Z,3.83
2023-04-13T07:21:21.796Z,1.20
2023-04-13T07:24:05.121Z,2.93
2023-04-13T07:26:34.322Z,2.70
2023-04-13T07:29:01.374Z,1.47
2023-04-13T07:31:34.742Z,1.67
2023-04-13T07:34:01.945Z,1.80
2023-04-13T07:36:33.950Z,1.50
2023-04-13T07:39:09.017Z,2.97
2023-04-13T07:41:38.587Z,2.23
2023-04-13T07:44:07.896Z,3.23
2023-04-13T07:46:35.248Z,1.57
2023-04-13T07:49:02.983Z,5.23
2023-04-13T07:51:34.685Z,2.43
2023-04-13T07:54:02.860Z,2.17
2023-04-13T07:56:31.820Z,1.90
2023-04-13T07:59:00.742Z,2.17
2023-04-13T08:01:27.791Z,2.23
2023-04-13T08:03:57.504Z,3.83
2023-04-13T08:06:28.764Z,3.03
2023-04-13T08:08:55.510Z,2.33
2023-04-13T08:11:23.756Z,2.37
2023-04-13T08:13:56.447Z,4.50
2023-04-13T08:16:23.510Z,3.10
2023-04-13T08:18:50.677Z,2.90
2023-04-13T08:21:19.636Z,3.57
2023-04-13T08:23:48.880Z,1.90
2023-04-13T08:26:20.359Z,4.00
2023-04-13T08:28:53.022Z,2.47
2023-04-13T08:31:20.427Z,5.70
2023-04-13T08:33:53.045Z,3.13
2023-04-13T08:36:19.771Z,3.53
2023-04-13T08:38:51.699Z,3.40
2023-04-13T08:41:20.010Z,2.70
2023-04-13T08:43:50.514Z,3.20
2023-04-13T08:46:23.109Z,5.87
2023-04-13T08:48:54.573Z,4.50
2023-04-13T08:51:28.787Z,5.57
2023-04-13T08:53:59.209Z,4.27
2023-04-13T08:56:42.686Z,4.53
2023-04-13T08:59:15.505Z,4.03
2023-04-13T09:01:49.283Z,3.60
2023-04-13T09:04:21.182Z,4.13
2023-04-13T09:06:51.727Z,4.37
2023-04-13T09:09:20.739Z,3.30
2023-04-13T09:11:49.966Z,3.20
2023-04-13T09:14:22.090Z,3.33
2023-04-13T09:16:54.856Z,6.33
2023-04-13T09:19:33.310Z,3.20
2023-04-13T09:22:13.727Z,3.50
2023-04-13T09:24:42.666Z,3.37
2023-04-13T09:27:23.451Z,4.67
2023-04-13T09:29:50.764Z,3.43
2023-04-13T09:32:24.662Z,3.73
2023-04-13T09:35:04.230Z,4.93
2023-04-13T09:37:32.796Z,3.80
2023-04-13T09:40:13.382Z,5.20
2023-04-13T09:42:57.236Z,3.13
2023-04-13T09:45:24.103Z,3.20
2023-04-13T09:47:52.244Z,3.53
2023-04-13T09:50:23.714Z,2.97
2023-04-13T09:53:19.672Z,3.90
2023-04-13T09:55:57.523Z,2.30
2023-04-13T09:58:25.478Z,2.90
2023-04-13T10:00:55.190Z,2.23
2023-04-13T10:03:23.696Z,3.77
2023-04-13T10:05:59.534Z,2.10
2023-04-13T10:08:37.528Z,2.17
2023-04-13T10:11:05.250Z,7.80
2023-04-13T10:13:39.250Z,2.83
2023-04-13T10:16:12.799Z,2.60
2023-04-13T10:19:02.222Z,2.73
2023-04-13T10:21:36.285Z,3.30
2023-04-13T10:26:38.263Z,2.23
2023-04-13T10:29:05.418Z,2.47
2023-04-13T10:31:39.309Z,2.40
2023-04-13T10:34:07.075Z,2.00
2023-04-13T10:36:41.853Z,1.80
2023-04-13T10:39:09.580Z,1.97
2023-04-13T10:41:37.088Z,2.60
2023-04-13T10:44:07.898Z,3.63
2023-04-13T10:46:35.895Z,5.17
2023-04-13T10:49:05.013Z,1.90
2023-04-13T10:51:45.279Z,1.90
2023-04-13T10:54:13.792Z,2.10
2023-04-13T10:56:42.989Z,4.93
2023-04-13T10:59:09.793Z,4.17
2023-04-13T11:01:36.761Z,4.33
2023-04-13T11:04:08.700Z,7.00
2023-04-13T11:06:38.587Z,4.20
2023-04-13T11:09:07.048Z,3.30
2023-04-13T11:11:36.567Z,9.83
2023-04-13T11:14:04.099Z,8.40
2023-04-13T11:16:31.397Z,2.70
2023-04-13T11:19:03.126Z,4.43
2023-04-13T11:21:32.162Z,4.53
2023-04-13T11:24:02.703Z,3.10
2023-04-13T11:26:42.330Z,3.10
2023-04-13T11:29:20.182Z,8.70
2023-04-13T11:31:47.133Z,4.47
2023-04-13T11:34:22.785Z,3.03
2023-04-13T11:36:50.226Z,3.93
2023-04-13T11:39:17.714Z,5.27
2023-04-13T11:41:44.563Z,4.30
2023-04-13T11:44:13.779Z,7.40
2023-04-13T11:46:40.506Z,5.53
2023-04-13T11:49:07.504Z,2.93
2023-04-13T11:51:35.076Z,3.17
2023-04-13T11:54:02.529Z,4.30
2023-04-13T11:56:31.045Z,4.07
2023-04-13T11:58:58.987Z,5.50
2023-04-13T12:01:32.253Z,4.60
2023-04-13T12:04:14.737Z,3.03
2023-04-13T12:06:49.192Z,4.27
2023-04-13T12:09:18.205Z,5.47
2023-04-13T12:11:52.089Z,2.70
2023-04-13T12:17:12.436Z,5.40
2023-04-13T12:20:00.799Z,3.07
2023-04-13T12:22:57.727Z,4.20
2023-04-13T12:25:36.087Z,5.13
2023-04-13T12:28:03.610Z,4.10
2023-04-13T12:30:30.925Z,6.33
2023-04-13T12:32:59.992Z,5.87
2023-04-13T12:35:26.639Z,3.50
2023-04-13T12:37:53.279Z,5.23
2023-04-13T12:40:20.362Z,5.40
2023-04-13T12:42:50.169Z,5.17
2023-04-13T12:45:19.318Z,7.40
2023-04-13T12:47:46.202Z,5.33
2023-04-13T12:50:18.462Z,5.30
2023-04-13T12:52:47.846Z,4.77
2023-04-13T12:55:14.907Z,5.33
2023-04-13T12:57:41.702Z,5.93
2023-04-13T13:00:12.309Z,3.30
2023-04-13T13:02:39.333Z,4.53
2023-04-13T13:05:06.630Z,5.67
2023-04-13T13:07:33.433Z,3.67
2023-04-13T13:10:01.904Z,4.70
2023-04-13T13:12:30.469Z,6.53
2023-04-13T13:14:58.863Z,4.73
2023-04-13T13:17:28.647Z,3.83
2023-04-13T13:19:56.608Z,5.90
2023-04-13T13:22:23.594Z,3.80
2023-04-13T13:24:50.288Z,6.07
2023-04-13T13:27:48.681Z,5.67
2023-04-13T13:30:05.346Z,4.50
2023-04-13T13:32:32.538Z,7.20
2023-04-13T13:34:59.355Z,4.77
2023-04-13T13:37:26.410Z,4.60
2023-04-13T13:39:57.188Z,4.43
2023-04-13T13:42:23.846Z,5.73
2023-04-13T13:44:50.641Z,5.20
2023-04-13T13:47:17.399Z,5.23
2023-04-13T13:49:48.711Z,4.73
2023-04-13T13:52:26.556Z,6.33
2023-04-13T13:54:55.324Z,10.43
2023-04-13T13:57:22.123Z,4.90
2023-04-13T13:59:49.462Z,6.23
2023-04-13T14:02:16.607Z,8.00
2023-04-13T14:04:43.639Z,8.23
2023-04-13T14:07:10.483Z,5.00
2023-04-13T14:09:37.143Z,11.30
2023-04-13T14:12:04.291Z,5.27
2023-04-13T14:14:31.113Z,12.70
2023-04-13T14:16:57.741Z,7.50
2023-04-13T14:19:24.633Z,6.73
2023-04-13T14:21:53.324Z,4.83
2023-04-13T14:24:23.050Z,4.73
2023-04-13T14:26:51.595Z,6.30
2023-04-13T14:29:18.391Z,5.30
2023-04-13T14:31:45.224Z,10.13
2023-04-13T14:34:12.021Z,6.40
2023-04-13T14:36:41.373Z,9.40
2023-04-13T14:39:08.098Z,5.13
2023-04-13T14:41:34.795Z,10.13
2023-04-13T14:44:01.474Z,6.13
2023-04-13T14:46:28.697Z,6.33
2023-04-13T14:48:55.466Z,7.20
2023-04-13T14:51:22.181Z,7.50
2023-04-13T14:53:49.412Z,4.67
2023-04-13T14:56:16.554Z,2.97
2023-04-13T14:58:43.259Z,2.47
2023-04-13T15:01:20.676Z,2.10
2023-04-13T15:03:48.023Z,4.07
2023-04-13T15:06:15.013Z,4.70
2023-04-13T15:08:41.840Z,4.67
2023-04-13T15:11:08.910Z,3.43
2023-04-13T15:13:37.070Z,3.00
2023-04-13T15:16:04.773Z,4.27
2023-04-13T15:18:31.462Z,3.70
2023-04-13T15:21:01.974Z,3.10
2023-04-13T15:23:28.692Z,5.30
2023-04-13T15:25:55.611Z,10.40
2023-04-13T15:28:25.115Z,6.63
2023-04-13T15:30:54.620Z,9.03
2023-04-13T15:33:23.469Z,4.80
2023-04-13T15:35:52.465Z,6.87
2023-04-13T15:38:19.146Z,6.37
2023-04-13T15:40:46.932Z,5.90
2023-04-13T15:43:13.802Z,5.20
2023-04-13T15:45:41.177Z,12.87
2023-04-13T15:48:08.102Z,16.37
2023-04-13T15:50:34.773Z,8.30
2023-04-13T15:53:01.693Z,7.53
2023-04-13T15:55:28.378Z,7.73
2023-04-13T15:57:56.989Z,10.00
2023-04-13T16:00:24.055Z,7.47
2023-04-13T16:02:50.851Z,6.63
2023-04-13T16:05:18.789Z,5.40
2023-04-13T16:07:45.593Z,3.73
2023-04-13T16:10:16.484Z,8.90
2023-04-13T16:12:44.843Z,6.90
2023-04-13T16:15:12.088Z,6.87
2023-04-13T16:17:43.491Z,9.50
2023-04-13T16:20:13.717Z,7.87
2023-04-13T16:22:41.516Z,8.67
2023-04-13T16:25:10.244Z,8.03
2023-04-13T16:27:40.153Z,6.10
2023-04-13T16:30:09.336Z,9.43
2023-04-13T16:32:36.401Z,5.80
2023-04-13T16:35:03.051Z,6.63
2023-04-13T16:37:29.700Z,7.30
2023-04-13T16:39:56.426Z,8.20
2023-04-13T16:42:25.122Z,8.57
2023-04-13T16:44:52.754Z,7.03
2023-04-13T16:47:21.272Z,11.03
2023-04-13T16:49:49.183Z,5.20
2023-04-13T16:52:16.769Z,7.37
2023-04-13T16:54:46.593Z,11.07
2023-04-13T16:57:13.369Z,6.40
2023-04-13T16:59:41.181Z,6.17
2023-04-13T17:02:13.262Z,5.47
2023-04-13T17:04:45.857Z,18.03
2023-04-13T17:07:15.839Z,10.40
2023-04-13T17:09:44.999Z,8.37
2023-04-13T17:12:11.861Z,8.90
2023-04-13T17:14:41.298Z,18.60
2023-04-13T17:17:16.538Z,14.57
2023-04-13T17:19:43.534Z,7.13
2023-04-13T17:22:12.383Z,21.03
2023-04-13T17:24:39.347Z,8.93
2023-04-13T17:27:06.483Z,8.37
2023-04-13T17:29:36.290Z,6.33
2023-04-13T17:32:03.087Z,6.57
2023-04-13T17:34:30.270Z,9.50
2023-04-13T17:37:05.144Z,7.40
2023-04-13T17:39:33.167Z,4.93
2023-04-13T17:41:59.892Z,10.33
2023-04-13T17:44:26.662Z,4.57
2023-04-13T17:46:56.267Z,4.53
2023-04-13T17:49:23.287Z,4.37
2023-04-13T17:51:50.368Z,5.17
2023-04-13T17:54:17.182Z,8.17
2023-04-13T17:56:45.815Z,9.83
2023-04-13T17:59:14.598Z,8.77
2023-04-13T18:01:44.603Z,5.63
2023-04-13T18:04:12.373Z,7.80
2023-04-13T18:06:39.813Z,8.33
2023-04-13T18:09:07.178Z,3.90
2023-04-13T18:11:34.040Z,5.40
2023-04-13T18:14:02.429Z,6.83
2023-04-13T18:16:31.636Z,6.43
2023-04-13T18:19:01.926Z,7.30
2023-04-13T18:21:28.771Z,6.40
2023-04-13T18:23:55.511Z,5.60
2023-04-13T18:26:22.781Z,3.63
2023-04-13T18:28:49.622Z,7.20
2023-04-13T18:31:16.857Z,5.33
2023-04-13T18:33:44.386Z,9.37
2023-04-13T18:36:18.322Z,6.97
2023-04-13T18:38:45.386Z,7.20
2023-04-13T18:41:12.500Z,5.80
2023-04-13T18:43:39.693Z,8.77
2023-04-13T18:46:07.712Z,9.43
2023-04-13T18:48:34.748Z,8.30
2023-04-13T18:51:02.945Z,5.80
2023-04-13T18:53:29.886Z,8.67
2023-04-13T18:55:57.958Z,8.40
2023-04-13T18:58:24.630Z,8.70
2023-04-13T19:00:51.372Z,6.03
2023-04-13T19:03:18.249Z,7.07
2023-04-13T19:05:45.069Z,6.80
2023-04-13T19:08:13.507Z,8.00
2023-04-13T19:10:41.460Z,7.03
2023-04-13T19:13:08.344Z,4.63
2023-04-13T19:15:35.802Z,4.87
2023-04-13T19:18:04.200Z,9.67
2023-04-13T19:20:31.441Z,10.57
2023-04-13T19:22:58.477Z,6.03
2023-04-13T19:25:27.463Z,10.63
2023-04-13T19:27:54.120Z,8.23
2023-04-13T19:30:20.918Z,6.60
2023-04-13T19:32:48.851Z,11.10
2023-04-13T19:35:15.771Z,8.20
2023-04-13T19:37:42.526Z,7.60
2023-04-13T19:40:10.056Z,9.03
2023-04-13T19:42:37.468Z,11.30
2023-04-13T19:45:04.905Z,8.83
2023-04-13T19:47:32.040Z,8.90
2023-04-13T19:49:59.489Z,6.63
2023-04-13T19:52:26.629Z,8.87
2023-04-13T19:54:53.328Z,10.13
2023-04-13T19:57:20.008Z,14.73
2023-04-13T19:59:46.721Z,11.43
2023-04-13T20:02:13.690Z,14.10
2023-04-13T20:04:42.859Z,17.10
2023-04-13T20:07:10.375Z,9.70
2023-04-13T20:09:37.106Z,12.10
2023-04-13T20:12:05.620Z,12.50
2023-04-13T20:14:32.494Z,9.77
2023-04-13T20:16:59.421Z,10.33
2023-04-13T20:19:26.445Z,13.90
2023-04-13T20:21:54.261Z,12.83
2023-04-13T20:24:21.198Z,9.67
2023-04-13T20:26:48.112Z,10.40
2023-04-13T20:29:21.950Z,14.37
2023-04-13T20:31:48.931Z,11.30
2023-04-13T20:34:16.043Z,9.20
2023-04-13T20:36:43.061Z,7.67
2023-04-13T20:39:09.896Z,12.03
2023-04-13T20:41:37.222Z,7.60
2023-04-13T20:44:04.318Z,9.20
2023-04-13T20:46:34.898Z,6.90
2023-04-13T20:49:04.269Z,7.97
2023-04-13T20:51:34.756Z,6.27
2023-04-13T20:54:02.772Z,9.00
2023-04-13T20:56:29.950Z,9.10
2023-04-13T20:58:58.092Z,9.00
2023-04-13T21:01:25.938Z,8.00
2023-04-13T21:03:53.248Z,10.17
2023-04-13T21:06:20.168Z,4.93
2023-04-13T21:08:46.850Z,9.50
2023-04-13T21:11:13.558Z,9.53
2023-04-13T21:13:40.481Z,5.60
2023-04-13T21:16:09.019Z,7.60
2023-04-13T21:18:36.788Z,7.37
2023-04-13T21:21:05.967Z,8.37
2023-04-13T21:23:32.833Z,11.00
2023-04-13T21:25:59.510Z,7.70
2023-04-13T21:28:26.146Z,5.03
2023-04-13T21:30:52.883Z,10.03
2023-04-13T21:33:19.585Z,9.00
2023-04-13T21:35:46.622Z,4.83
2023-04-13T21:38:13.290Z,4.87
2023-04-13T21:40:39.952Z,3.60
2023-04-13T21:43:06.720Z,3.43
2023-04-13T21:45:33.567Z,6.10
2023-04-13T21:48:00.249Z,5.50
2023-04-13T21:50:30.235Z,3.27
2023-04-13T21:52:56.968Z,5.70
2023-04-13T21:55:23.729Z,7.93
2023-04-13T21:57:50.495Z,3.97
2023-04-13T22:00:18.011Z,4.50
2023-04-13T22:02:44.889Z,7.43
2023-04-13T22:05:11.940Z,4.87
2023-04-13T22:07:43.214Z,6.73
2023-04-13T22:10:11.341Z,5.70
2023-04-13T22:12:38.244Z,1.77
2023-04-13T22:15:05.565Z,3.53
2023-04-13T22:17:32.329Z,4.10
2023-04-13T22:19:59.049Z,3.53
2023-04-13T22:22:25.837Z,6.27
2023-04-13T22:24:53.161Z,4.17
2023-04-13T22:27:20.006Z,4.03
2023-04-13T22:29:47.522Z,3.50
2023-04-13T22:32:14.906Z,8.00
2023-04-13T22:34:41.635Z,5.50
2023-04-13T22:37:10.349Z,12.03
2023-04-13T22:39:37.095Z,5.47
2023-04-13T22:42:04.003Z,5.03
2023-04-13T22:44:34.390Z,3.80
2023-04-13T22:47:04.907Z,3.97
2023-04-13T22:49:31.616Z,5.70
2023-04-13T22:52:00.245Z,7.07
2023-04-13T22:54:26.908Z,4.43
2023-04-13T22:56:53.834Z,4.13
2023-04-13T22:59:20.549Z,4.50
2023-04-13T23:01:47.554Z,4.63
2023-04-13T23:04:16.234Z,3.20
2023-04-13T23:06:43.163Z,5.40
2023-04-13T23:09:09.930Z,5.23
2023-04-13T23:11:38.953Z,3.40
2023-04-13T23:14:06.631Z,4.57
2023-04-13T23:16:34.016Z,7.33
2023-04-13T23:19:01.031Z,9.73
2023-04-13T23:21:29.005Z,6.43
2023-04-13T23:23:55.732Z,9.43
2023-04-13T23:26:22.414Z,11.10
2023-04-13T23:28:49.186Z,8.87
2023-04-13T23:31:15.908Z,9.83
2023-04-13T23:33:42.647Z,8.20
2023-04-13T23:36:09.866Z,7.30
2023-04-13T23:38:36.584Z,10.23
2023-04-13T23:41:03.217Z,8.03
2023-04-13T23:43:29.820Z,6.90
2023-04-13T23:45:57.244Z,9.83
2023-04-13T23:48:26.158Z,9.47
2023-04-13T23:50:53.101Z,7.07
2023-04-13T23:53:23.153Z,8.13
2023-04-13T23:55:49.770Z,6.73
2023-04-13T23:58:16.501Z,6.77
